Time,TemperatureF,DewpointF,PressureIn,WindDirection,WindDirectionDegrees,WindSpeedMPH,WindSpeedGustMPH,Humidity,HourlyPrecipIn,Conditions,Clouds,dailyrainin,SolarRadiationWatts/m^2,SoftwareType,DateUTC
2013-09-03 00:04:00,66.0,65.0,-100.00,NNE,20,2.0,3.0,97,0.00,,,0.00,0.000000,,2013-09-03 04:04:00,
2013-09-03 00:44:00,65.0,64.0,-100.00,NNE,23,2.0,4.0,98,0.00,,,0.00,0.000000,,2013-09-03 04:44:00,
2013-09-03 00:53:00,65.0,64.0,-100.00,NNE,23,2.0,4.0,98,0.00,,,0.00,0.000000,,2013-09-03 04:53:00,
2013-09-03 01:03:00,65.0,64.0,-100.00,NNE,23,2.0,4.0,98,0.00,,,0.00,0.000000,,2013-09-03 05:03:00,
2013-09-03 01:43:00,65.0,64.0,-100.00,NNE,26,2.0,3.0,98,0.00,,,0.00,0.000000,,2013-09-03 05:43:00,
2013-09-03 01:52:00,65.0,64.0,-100.00,NNE,26,2.0,3.0,98,0.00,,,0.00,0.000000,,2013-09-03 05:52:00,
2013-09-03 02:02:00,65.0,64.0,-100.00,NNE,26,2.0,3.0,98,0.00,,,0.00,0.000000,,2013-09-03 06:02:00,
2013-09-03 02:43:00,64.0,63.0,-100.00,NE,40,1.0,3.0,98,0.00,,,0.00,0.000000,,2013-09-03 06:43:00,
2013-09-03 02:52:00,64.0,63.0,-100.00,NE,40,1.0,3.0,98,0.00,,,0.00,0.000000,,2013-09-03 06:52:00,
2013-09-03 03:02:00,64.0,63.0,-100.00,NE,40,1.0,3.0,98,0.00,,,0.00,0.000000,,2013-09-03 07:02:00,
2013-09-03 03:42:00,64.0,63.0,-100.00,NNE,12,1.0,4.0,98,0.00,,,0.00,0.000000,,2013-09-03 07:42:00,
2013-09-03 03:53:00,64.0,63.0,-100.00,NNE,12,1.0,4.0,98,0.00,,,0.00,0.000000,,2013-09-03 07:53:00,
2013-09-03 04:03:00,64.0,63.0,-100.00,NNE,12,1.0,4.0,98,0.00,,,0.00,0.000000,,2013-09-03 08:03:00,
2013-09-03 04:42:00,65.0,64.0,-100.00,NE,40,2.0,4.0,98,0.00,,,0.00,0.000000,,2013-09-03 08:42:00,
2013-09-03 04:52:00,65.0,64.0,-100.00,NE,40,2.0,4.0,98,0.00,,,0.00,0.000000,,2013-09-03 08:52:00,
2013-09-03 05:02:00,65.0,64.0,-100.00,NE,40,2.0,4.0,98,0.00,,,0.00,0.000000,,2013-09-03 09:02:00,
2013-09-03 05:43:00,64.0,63.0,-100.00,North,352,1.0,4.0,98,0.00,,,0.00,0.000000,,2013-09-03 09:43:00,
2013-09-03 05:53:00,64.0,63.0,-100.00,North,352,1.0,4.0,98,0.00,,,0.00,0.000000,,2013-09-03 09:53:00,
2013-09-03 06:03:00,64.0,63.0,-100.00,North,352,1.0,4.0,98,0.00,,,0.00,0.000000,,2013-09-03 10:03:00,
2013-09-03 06:42:00,64.0,64.0,-100.00,NNE,24,3.0,5.0,99,0.01,,,0.01,0.000000,,2013-09-03 10:42:00,
2013-09-03 06:53:00,64.0,64.0,-100.00,NNE,24,3.0,5.0,99,0.01,,,0.01,0.000000,,2013-09-03 10:53:00,
2013-09-03 07:03:00,64.0,64.0,-100.00,NNE,24,3.0,5.0,99,0.01,,,0.01,0.000000,,2013-09-03 11:03:00,
2013-09-03 07:43:00,65.0,65.0,-100.00,NE,49,1.0,4.0,99,0.00,,,0.01,0.000000,,2013-09-03 11:43:00,
2013-09-03 07:52:00,65.0,65.0,-100.00,NE,49,1.0,4.0,99,0.00,,,0.01,0.000000,,2013-09-03 11:52:00,
2013-09-03 08:02:00,65.0,65.0,-100.00,NE,49,1.0,4.0,99,0.00,,,0.01,0.000000,,2013-09-03 12:02:00,
2013-09-03 08:42:00,66.0,64.0,-100.00,South,181,1.0,14.0,94,0.00,,,0.01,7.000000,,2013-09-03 12:42:00,
2013-09-03 08:52:00,66.0,64.0,-100.00,South,181,1.0,14.0,94,0.00,,,0.01,7.000000,,2013-09-03 12:52:00,
2013-09-03 09:02:00,66.0,64.0,-100.00,South,181,1.0,14.0,94,0.00,,,0.01,7.000000,,2013-09-03 13:02:00,
2013-09-03 09:42:00,69.0,66.0,-100.00,ESE,116,2.0,7.0,91,0.00,,,0.01,120.000000,,2013-09-03 13:42:00,
2013-09-03 09:52:00,69.0,66.0,-100.00,ESE,116,2.0,7.0,91,0.00,,,0.01,120.000000,,2013-09-03 13:52:00,
2013-09-03 10:02:00,69.0,66.0,-100.00,ESE,116,2.0,7.0,91,0.00,,,0.01,120.000000,,2013-09-03 14:02:00,
2013-09-03 10:42:00,73.0,65.0,-100.00,NW,311,6.0,10.0,77,0.00,,,0.01,446.000000,,2013-09-03 14:42:00,
2013-09-03 10:52:00,73.0,65.0,-100.00,NW,311,6.0,10.0,77,0.00,,,0.01,446.000000,,2013-09-03 14:52:00,
2013-09-03 11:02:00,73.0,65.0,-100.00,NW,311,6.0,10.0,77,0.00,,,0.01,446.000000,,2013-09-03 15:02:00,
2013-09-03 11:43:00,76.0,67.0,-100.00,NNW,340,4.0,10.0,73,0.00,,,0.01,584.000000,,2013-09-03 15:43:00,
2013-09-03 11:54:00,76.0,67.0,-100.00,NNW,340,4.0,10.0,73,0.00,,,0.01,584.000000,,2013-09-03 15:54:00,
2013-09-03 12:04:00,76.0,67.0,-100.00,NNW,340,4.0,10.0,73,0.00,,,0.01,584.000000,,2013-09-03 16:04:00,
2013-09-03 12:43:00,78.0,67.0,-100.00,NNW,328,3.0,10.0,68,0.00,,,0.01,641.000000,,2013-09-03 16:43:00,
2013-09-03 12:54:00,78.0,67.0,-100.00,NNW,328,3.0,10.0,68,0.00,,,0.01,641.000000,,2013-09-03 16:54:00,
2013-09-03 13:03:00,78.0,67.0,-100.00,NNW,328,3.0,10.0,68,0.00,,,0.01,641.000000,,2013-09-03 17:03:00,
2013-09-03 13:43:00,80.0,67.0,-100.00,NE,36,2.0,10.0,64,0.00,,,0.01,657.000000,,2013-09-03 17:43:00,
2013-09-03 13:52:00,80.0,67.0,-100.00,NE,36,2.0,10.0,64,0.00,,,0.01,657.000000,,2013-09-03 17:52:00,
2013-09-03 14:02:00,80.0,67.0,-100.00,NE,36,2.0,10.0,64,0.00,,,0.01,657.000000,,2013-09-03 18:02:00,
2013-09-03 14:43:00,81.0,66.0,-100.00,NW,314,4.0,10.0,60,0.00,,,-99.99,814.000000,,2013-09-03 18:43:00,
2013-09-03 14:52:00,81.0,66.0,-100.00,NW,314,4.0,10.0,60,0.00,,,-99.99,814.000000,,2013-09-03 18:52:00,
2013-09-03 15:02:00,81.0,66.0,-100.00,NW,314,4.0,10.0,60,0.00,,,-99.99,814.000000,,2013-09-03 19:02:00,
2013-09-03 15:42:00,79.0,63.0,-100.00,NW,324,6.0,12.0,59,0.00,,,0.01,725.000000,,2013-09-03 19:42:00,
2013-09-03 15:52:00,79.0,63.0,-100.00,NW,324,6.0,12.0,59,0.00,,,0.01,725.000000,,2013-09-03 19:52:00,
2013-09-03 16:02:00,79.0,63.0,-100.00,NW,324,6.0,12.0,59,0.00,,,0.01,725.000000,,2013-09-03 20:02:00,
2013-09-03 16:42:00,81.0,62.0,-100.00,West,272,6.0,13.0,52,0.00,,,0.01,412.000000,,2013-09-03 20:42:00,
2013-09-03 16:53:00,81.0,62.0,-100.00,West,272,6.0,13.0,52,0.00,,,0.01,412.000000,,2013-09-03 20:53:00,
2013-09-03 17:02:00,81.0,62.0,-100.00,West,272,6.0,13.0,52,0.00,,,0.01,412.000000,,2013-09-03 21:02:00,
2013-09-03 17:44:00,81.0,62.0,-100.00,WNW,301,6.0,14.0,53,0.00,,,0.01,91.000000,,2013-09-03 21:44:00,
2013-09-03 17:54:00,81.0,62.0,-100.00,WNW,301,6.0,14.0,53,0.00,,,0.01,91.000000,,2013-09-03 21:54:00,
2013-09-03 18:04:00,81.0,62.0,-100.00,WNW,301,6.0,14.0,53,0.00,,,0.01,91.000000,,2013-09-03 22:04:00,
2013-09-03 18:43:00,79.0,62.0,-100.00,NNW,335,3.0,11.0,57,0.00,,,0.01,266.000000,,2013-09-03 22:43:00,
2013-09-03 18:53:00,79.0,62.0,-100.00,NNW,335,3.0,11.0,57,0.00,,,0.01,266.000000,,2013-09-03 22:53:00,
2013-09-03 19:04:00,79.0,62.0,-100.00,NNW,335,3.0,11.0,57,0.00,,,0.01,266.000000,,2013-09-03 23:04:00,
2013-09-03 19:42:00,75.0,64.0,-100.00,WNW,286,0.0,7.0,69,0.00,,,0.01,126.000000,,2013-09-03 23:42:00,
2013-09-03 19:54:00,75.0,64.0,-100.00,WNW,286,0.0,7.0,69,0.00,,,0.01,126.000000,,2013-09-03 23:54:00,
2013-09-03 20:02:00,75.0,64.0,-100.00,WNW,286,0.0,7.0,69,0.00,,,0.01,126.000000,,2013-09-04 00:02:00,
2013-09-03 20:42:00,71.0,66.0,-100.00,WNW,302,3.0,6.0,83,0.00,,,0.01,17.000000,,2013-09-04 00:42:00,
2013-09-03 20:52:00,71.0,66.0,-100.00,WNW,302,3.0,6.0,83,0.00,,,0.01,17.000000,,2013-09-04 00:52:00,
2013-09-03 21:02:00,71.0,66.0,-100.00,WNW,302,3.0,6.0,83,0.00,,,0.01,17.000000,,2013-09-04 01:02:00,
2013-09-03 21:42:00,67.0,65.0,-100.00,NNE,27,1.0,4.0,92,0.00,,,0.01,0.000000,,2013-09-04 01:42:00,
2013-09-03 21:53:00,67.0,65.0,-100.00,NNE,27,1.0,4.0,92,0.00,,,0.01,0.000000,,2013-09-04 01:53:00,
2013-09-03 22:02:00,67.0,65.0,-100.00,NNE,27,1.0,4.0,92,0.00,,,0.01,0.000000,,2013-09-04 02:02:00,
2013-09-03 22:43:00,66.0,65.0,-100.00,ENE,71,0.0,4.0,96,0.00,,,0.01,0.000000,,2013-09-04 02:43:00,
2013-09-03 22:52:00,66.0,65.0,-100.00,ENE,71,0.0,4.0,96,0.00,,,0.01,0.000000,,2013-09-04 02:52:00,
2013-09-03 23:03:00,66.0,65.0,-100.00,ENE,71,0.0,4.0,96,0.00,,,0.01,0.000000,,2013-09-04 03:03:00,
2013-09-03 23:44:00,65.0,64.0,-100.00,NE,47,1.0,5.0,97,0.00,,,0.01,0.000000,,2013-09-04 03:44:00,
2013-09-03 23:55:00,65.0,64.0,-100.00,NE,47,1.0,5.0,97,0.00,,,0.01,0.000000,,2013-09-04 03:55:00,